sensor_id;sensor_type;location;lat;lon;timestamp;P1;durP1;ratioP1;P2;durP2;ratioP2
14975;SDS011;7584;60.468;25.126;2023-01-15T00:01:25;9.57;;;1.70;;
14975;SDS011;7584;60.468;25.126;2023-01-15T00:03:52;11.80;;;2.73;;
14975;SDS011;7584;60.468;25.126;2023-01-15T00:06:17;7.37;;;1.53;;
14975;SDS011;7584;60.468;25.126;2023-01-15T00:08:43;6.70;;;1.00;;
14975;SDS011;7584;60.468;25.126;2023-01-15T00:11:08;3.90;;;1.33;;
14975;SDS011;7584;60.468;25.126;2023-01-15T00:13:34;5.83;;;1.17;;
14975;SDS011;7584;60.468;25.126;2023-01-15T00:16:05;8.67;;;3.23;;
14975;SDS011;7584;60.468;25.126;2023-01-15T00:18:31;6.90;;;1.23;;
14975;SDS011;7584;60.468;25.126;2023-01-15T00:21:04;8.23;;;1.43;;
14975;SDS011;7584;60.468;25.126;2023-01-15T00:23:30;4.97;;;1.40;;
14975;SDS011;7584;60.468;25.126;2023-01-15T00:26:14;4.03;;;1.00;;
14975;SDS011;7584;60.468;25.126;2023-01-15T00:28:59;2.47;;;1.03;;
14975;SDS011;7584;60.468;25.126;2023-01-15T00:31:24;4.83;;;0.80;;
14975;SDS011;7584;60.468;25.126;2023-01-15T00:33:50;4.73;;;1.33;;
14975;SDS011;7584;60.468;25.126;2023-01-15T00:36:15;14.10;;;2.20;;
14975;SDS011;7584;60.468;25.126;2023-01-15T00:38:40;7.03;;;1.57;;
14975;SDS011;7584;60.468;25.126;2023-01-15T00:41:06;12.50;;;1.63;;
14975;SDS011;7584;60.468;25.126;2023-01-15T00:43:31;14.73;;;2.40;;
14975;SDS011;7584;60.468;25.126;2023-01-15T00:45:56;9.23;;;1.53;;
14975;SDS011;7584;60.468;25.126;2023-01-15T00:48:22;7.10;;;1.90;;
14975;SDS011;7584;60.468;25.126;2023-01-15T00:50:47;11.50;;;1.73;;
14975;SDS011;7584;60.468;25.126;2023-01-15T00:53:12;6.67;;;1.20;;
14975;SDS011;7584;60.468;25.126;2023-01-15T00:55:37;9.70;;;1.60;;
14975;SDS011;7584;60.468;25.126;2023-01-15T00:58:03;6.47;;;1.70;;
14975;SDS011;7584;60.468;25.126;2023-01-15T01:00:28;5.73;;;1.00;;
14975;SDS011;7584;60.468;25.126;2023-01-15T01:02:54;10.50;;;1.30;;
14975;SDS011;7584;60.468;25.126;2023-01-15T01:05:20;6.13;;;1.13;;
14975;SDS011;7584;60.468;25.126;2023-01-15T01:07:45;9.10;;;1.27;;
14975;SDS011;7584;60.468;25.126;2023-01-15T01:10:10;8.60;;;1.57;;
14975;SDS011;7584;60.468;25.126;2023-01-15T01:12:36;9.87;;;1.57;;
14975;SDS011;7584;60.468;25.126;2023-01-15T01:15:01;5.63;;;1.30;;
14975;SDS011;7584;60.468;25.126;2023-01-15T01:17:27;5.87;;;1.50;;
14975;SDS011;7584;60.468;25.126;2023-01-15T01:19:52;6.03;;;1.30;;
14975;SDS011;7584;60.468;25.126;2023-01-15T01:22:17;5.37;;;1.50;;
14975;SDS011;7584;60.468;25.126;2023-01-15T01:24:43;5.10;;;1.60;;
14975;SDS011;7584;60.468;25.126;2023-01-15T01:27:08;7.27;;;1.40;;
14975;SDS011;7584;60.468;25.126;2023-01-15T01:29:33;6.37;;;1.20;;
14975;SDS011;7584;60.468;25.126;2023-01-15T01:31:59;12.60;;;1.60;;
14975;SDS011;7584;60.468;25.126;2023-01-15T01:34:24;5.90;;;1.37;;
14975;SDS011;7584;60.468;25.126;2023-01-15T01:36:49;7.30;;;1.20;;
14975;SDS011;7584;60.468;25.126;2023-01-15T01:39:16;3.93;;;1.23;;
14975;SDS011;7584;60.468;25.126;2023-01-15T01:41:41;6.20;;;1.37;;
14975;SDS011;7584;60.468;25.126;2023-01-15T01:46:55;6.63;;;1.30;;
14975;SDS011;7584;60.468;25.126;2023-01-15T01:49:20;4.60;;;1.30;;
14975;SDS011;7584;60.468;25.126;2023-01-15T01:51:49;4.47;;;1.13;;
14975;SDS011;7584;60.468;25.126;2023-01-15T01:54:16;9.80;;;1.30;;
14975;SDS011;7584;60.468;25.126;2023-01-15T01:56:43;7.70;;;1.57;;
14975;SDS011;7584;60.468;25.126;2023-01-15T01:59:08;12.20;;;2.37;;
14975;SDS011;7584;60.468;25.126;2023-01-15T02:01:33;6.30;;;1.37;;
14975;SDS011;7584;60.468;25.126;2023-01-15T02:03:59;9.50;;;2.10;;
14975;SDS011;7584;60.468;25.126;2023-01-15T02:06:24;5.43;;;1.50;;
14975;SDS011;7584;60.468;25.126;2023-01-15T02:08:50;6.53;;;1.60;;
14975;SDS011;7584;60.468;25.126;2023-01-15T02:11:16;8.50;;;2.80;;
14975;SDS011;7584;60.468;25.126;2023-01-15T02:13:45;8.40;;;1.87;;
14975;SDS011;7584;60.468;25.126;2023-01-15T02:16:22;5.20;;;1.70;;
14975;SDS011;7584;60.468;25.126;2023-01-15T02:24:51;10.43;;;1.97;;
14975;SDS011;7584;60.468;25.126;2023-01-15T02:26:59;5.97;;;2.40;;
14975;SDS011;7584;60.468;25.126;2023-01-15T02:29:37;8.57;;;2.90;;
14975;SDS011;7584;60.468;25.126;2023-01-15T02:32:06;5.17;;;1.60;;
14975;SDS011;7584;60.468;25.126;2023-01-15T02:34:33;7.90;;;2.37;;
14975;SDS011;7584;60.468;25.126;2023-01-15T02:37:07;10.67;;;1.93;;
14975;SDS011;7584;60.468;25.126;2023-01-15T02:39:34;10.67;;;1.53;;
14975;SDS011;7584;60.468;25.126;2023-01-15T02:42:02;7.47;;;1.50;;
14975;SDS011;7584;60.468;25.126;2023-01-15T02:44:28;7.30;;;2.10;;
14975;SDS011;7584;60.468;25.126;2023-01-15T02:46:55;7.77;;;1.90;;
14975;SDS011;7584;60.468;25.126;2023-01-15T02:49:22;7.43;;;2.07;;
14975;SDS011;7584;60.468;25.126;2023-01-15T02:51:50;2.93;;;1.40;;
14975;SDS011;7584;60.468;25.126;2023-01-15T02:54:16;5.83;;;1.67;;
14975;SDS011;7584;60.468;25.126;2023-01-15T02:56:43;6.57;;;1.60;;
14975;SDS011;7584;60.468;25.126;2023-01-15T02:59:10;4.03;;;1.27;;
14975;SDS011;7584;60.468;25.126;2023-01-15T03:01:41;7.17;;;1.93;;
14975;SDS011;7584;60.468;25.126;2023-01-15T03:04:16;3.77;;;1.20;;
14975;SDS011;7584;60.468;25.126;2023-01-15T03:09:19;5.60;;;1.27;;
14975;SDS011;7584;60.468;25.126;2023-01-15T03:11:48;5.50;;;1.30;;
14975;SDS011;7584;60.468;25.126;2023-01-15T03:14:22;5.03;;;1.30;;
14975;SDS011;7584;60.468;25.126;2023-01-15T03:16:55;5.83;;;1.33;;
14975;SDS011;7584;60.468;25.126;2023-01-15T03:21:55;3.93;;;1.47;;
14975;SDS011;7584;60.468;25.126;2023-01-15T03:24:32;2.00;;;1.00;;
14975;SDS011;7584;60.468;25.126;2023-01-15T03:27:01;6.57;;;1.60;;
14975;SDS011;7584;60.468;25.126;2023-01-15T03:29:28;5.33;;;1.27;;
14975;SDS011;7584;60.468;25.126;2023-01-15T03:31:54;3.80;;;1.40;;
14975;SDS011;7584;60.468;25.126;2023-01-15T03:34:20;4.97;;;1.87;;
14975;SDS011;7584;60.468;25.126;2023-01-15T03:36:45;6.57;;;1.70;;
14975;SDS011;7584;60.468;25.126;2023-01-15T03:39:11;6.27;;;1.63;;
14975;SDS011;7584;60.468;25.126;2023-01-15T03:44:17;5.60;;;1.50;;
14975;SDS011;7584;60.468;25.126;2023-01-15T03:49:20;7.13;;;1.83;;
14975;SDS011;7584;60.468;25.126;2023-01-15T03:51:59;3.90;;;1.87;;
14975;SDS011;7584;60.468;25.126;2023-01-15T03:54:29;5.40;;;2.07;;
14975;SDS011;7584;60.468;25.126;2023-01-15T03:56:57;4.57;;;2.33;;
14975;SDS011;7584;60.468;25.126;2023-01-15T03:59:37;7.83;;;3.00;;
14975;SDS011;7584;60.468;25.126;2023-01-15T04:02:04;3.60;;;2.40;;
14975;SDS011;7584;60.468;25.126;2023-01-15T04:04:30;3.77;;;2.53;;
14975;SDS011;7584;60.468;25.126;2023-01-15T04:06:56;4.77;;;2.30;;
14975;SDS011;7584;60.468;25.126;2023-01-15T04:09:22;11.43;;;3.20;;
14975;SDS011;7584;60.468;25.126;2023-01-15T04:11:47;4.10;;;2.37;;
14975;SDS011;7584;60.468;25.126;2023-01-15T04:14:13;5.47;;;2.97;;
14975;SDS011;7584;60.468;25.126;2023-01-15T04:16:38;5.23;;;2.50;;
14975;SDS011;7584;60.468;25.126;2023-01-15T04:19:04;10.03;;;2.43;;
14975;SDS011;7584;60.468;25.126;2023-01-15T04:21:29;7.97;;;2.87;;
14975;SDS011;7584;60.468;25.126;2023-01-15T04:23:55;6.57;;;2.57;;
14975;SDS011;7584;60.468;25.126;2023-01-15T04:26:20;9.30;;;2.60;;
14975;SDS011;7584;60.468;25.126;2023-01-15T04:28:45;5.20;;;2.30;;
14975;SDS011;7584;60.468;25.126;2023-01-15T04:31:11;6.33;;;2.63;;
14975;SDS011;7584;60.468;25.126;2023-01-15T04:33:36;3.67;;;2.30;;
14975;SDS011;7584;60.468;25.126;2023-01-15T04:36:03;4.17;;;2.27;;
14975;SDS011;7584;60.468;25.126;2023-01-15T04:38:28;6.27;;;2.53;;
14975;SDS011;7584;60.468;25.126;2023-01-15T04:40:54;3.57;;;2.33;;
14975;SDS011;7584;60.468;25.126;2023-01-15T04:43:38;6.00;;;2.50;;
14975;SDS011;7584;60.468;25.126;2023-01-15T04:46:22;3.87;;;2.33;;
14975;SDS011;7584;60.468;25.126;2023-01-15T04:48:47;5.37;;;2.30;;
14975;SDS011;7584;60.468;25.126;2023-01-15T04:51:12;7.80;;;2.10;;
14975;SDS011;7584;60.468;25.126;2023-01-15T04:53:38;4.30;;;2.10;;
14975;SDS011;7584;60.468;25.126;2023-01-15T04:56:03;4.57;;;2.23;;
14975;SDS011;7584;60.468;25.126;2023-01-15T04:58:29;10.50;;;2.83;;
14975;SDS011;7584;60.468;25.126;2023-01-15T05:00:55;4.50;;;2.30;;
14975;SDS011;7584;60.468;25.126;2023-01-15T05:03:20;4.67;;;2.40;;
14975;SDS011;7584;60.468;25.126;2023-01-15T05:05:45;5.87;;;2.07;;
14975;SDS011;7584;60.468;25.126;2023-01-15T05:08:10;5.03;;;2.37;;
14975;SDS011;7584;60.468;25.126;2023-01-15T05:10:36;5.00;;;2.40;;
14975;SDS011;7584;60.468;25.126;2023-01-15T05:13:01;3.63;;;2.40;;
14975;SDS011;7584;60.468;25.126;2023-01-15T05:15:26;4.10;;;2.47;;
14975;SDS011;7584;60.468;25.126;2023-01-15T05:17:51;9.83;;;2.90;;
14975;SDS011;7584;60.468;25.126;2023-01-15T05:20:17;5.33;;;2.00;;
14975;SDS011;7584;60.468;25.126;2023-01-15T05:22:42;3.37;;;2.33;;
14975;SDS011;7584;60.468;25.126;2023-01-15T05:25:07;5.00;;;2.13;;
14975;SDS011;7584;60.468;25.126;2023-01-15T05:27:33;6.93;;;2.33;;
14975;SDS011;7584;60.468;25.126;2023-01-15T05:29:58;5.33;;;2.70;;
14975;SDS011;7584;60.468;25.126;2023-01-15T05:32:23;5.10;;;2.27;;
14975;SDS011;7584;60.468;25.126;2023-01-15T05:34:48;6.30;;;3.23;;
14975;SDS011;7584;60.468;25.126;2023-01-15T05:37:14;7.87;;;2.40;;
14975;SDS011;7584;60.468;25.126;2023-01-15T05:39:39;3.43;;;2.67;;
14975;SDS011;7584;60.468;25.126;2023-01-15T05:42:04;5.50;;;2.87;;
14975;SDS011;7584;60.468;25.126;2023-01-15T05:44:30;7.07;;;2.50;;
14975;SDS011;7584;60.468;25.126;2023-01-15T05:46:59;4.97;;;2.73;;
14975;SDS011;7584;60.468;25.126;2023-01-15T05:49:29;5.90;;;2.50;;
14975;SDS011;7584;60.468;25.126;2023-01-15T05:51:55;6.17;;;2.63;;
14975;SDS011;7584;60.468;25.126;2023-01-15T05:54:25;4.23;;;2.73;;
14975;SDS011;7584;60.468;25.126;2023-01-15T05:56:51;5.90;;;3.27;;
14975;SDS011;7584;60.468;25.126;2023-01-15T05:59:17;3.10;;;2.80;;
14975;SDS011;7584;60.468;25.126;2023-01-15T06:01:42;9.23;;;2.90;;
14975;SDS011;7584;60.468;25.126;2023-01-15T06:04:09;2.90;;;2.40;;
14975;SDS011;7584;60.468;25.126;2023-01-15T06:06:34;4.63;;;2.60;;
14975;SDS011;7584;60.468;25.126;2023-01-15T06:09:00;4.43;;;2.70;;
14975;SDS011;7584;60.468;25.126;2023-01-15T06:11:26;5.57;;;2.40;;
14975;SDS011;7584;60.468;25.126;2023-01-15T06:13:51;5.67;;;2.83;;
14975;SDS011;7584;60.468;25.126;2023-01-15T06:16:17;6.07;;;3.00;;
14975;SDS011;7584;60.468;25.126;2023-01-15T06:18:43;6.20;;;2.63;;
14975;SDS011;7584;60.468;25.126;2023-01-15T06:21:09;4.43;;;2.33;;
14975;SDS011;7584;60.468;25.126;2023-01-15T06:23:35;5.33;;;2.33;;
14975;SDS011;7584;60.468;25.126;2023-01-15T06:26:05;7.03;;;2.50;;
14975;SDS011;7584;60.468;25.126;2023-01-15T06:28:30;6.33;;;2.90;;
14975;SDS011;7584;60.468;25.126;2023-01-15T06:30:55;6.43;;;2.87;;
14975;SDS011;7584;60.468;25.126;2023-01-15T06:33:21;5.37;;;2.77;;
14975;SDS011;7584;60.468;25.126;2023-01-15T06:35:46;7.83;;;2.47;;
14975;SDS011;7584;60.468;25.126;2023-01-15T06:38:12;7.67;;;2.70;;
14975;SDS011;7584;60.468;25.126;2023-01-15T06:40:37;7.93;;;3.50;;
14975;SDS011;7584;60.468;25.126;2023-01-15T06:43:02;5.70;;;2.33;;
14975;SDS011;7584;60.468;25.126;2023-01-15T06:45:46;7.50;;;3.00;;
14975;SDS011;7584;60.468;25.126;2023-01-15T06:48:50;7.07;;;2.90;;
14975;SDS011;7584;60.468;25.126;2023-01-15T06:51:15;6.33;;;2.93;;
14975;SDS011;7584;60.468;25.126;2023-01-15T06:53:44;5.90;;;3.37;;
14975;SDS011;7584;60.468;25.126;2023-01-15T06:56:09;7.60;;;3.17;;
14975;SDS011;7584;60.468;25.126;2023-01-15T06:58:34;5.60;;;2.90;;
14975;SDS011;7584;60.468;25.126;2023-01-15T07:01:05;7.33;;;2.97;;
14975;SDS011;7584;60.468;25.126;2023-01-15T07:03:30;7.87;;;2.90;;
14975;SDS011;7584;60.468;25.126;2023-01-15T07:05:55;5.13;;;2.83;;
14975;SDS011;7584;60.468;25.126;2023-01-15T07:08:21;3.30;;;2.60;;
14975;SDS011;7584;60.468;25.126;2023-01-15T07:10:46;4.53;;;3.13;;
14975;SDS011;7584;60.468;25.126;2023-01-15T07:13:11;4.37;;;3.40;;
14975;SDS011;7584;60.468;25.126;2023-01-15T07:15:37;7.87;;;3.00;;
14975;SDS011;7584;60.468;25.126;2023-01-15T07:18:02;4.80;;;3.10;;
14975;SDS011;7584;60.468;25.126;2023-01-15T07:20:29;6.67;;;3.50;;
14975;SDS011;7584;60.468;25.126;2023-01-15T07:22:54;7.60;;;3.03;;
14975;SDS011;7584;60.468;25.126;2023-01-15T07:25:19;7.63;;;3.50;;
14975;SDS011;7584;60.468;25.126;2023-01-15T07:27:45;6.13;;;3.07;;
14975;SDS011;7584;60.468;25.126;2023-01-15T07:30:11;5.27;;;3.37;;
14975;SDS011;7584;60.468;25.126;2023-01-15T07:32:37;6.90;;;3.03;;
14975;SDS011;7584;60.468;25.126;2023-01-15T07:35:02;8.00;;;2.93;;
14975;SDS011;7584;60.468;25.126;2023-01-15T07:37:27;3.80;;;2.77;;
14975;SDS011;7584;60.468;25.126;2023-01-15T07:39:52;5.47;;;3.00;;
14975;SDS011;7584;60.468;25.126;2023-01-15T07:42:18;6.07;;;3.30;;
14975;SDS011;7584;60.468;25.126;2023-01-15T07:45:02;9.40;;;3.60;;
14975;SDS011;7584;60.468;25.126;2023-01-15T07:47:46;5.93;;;3.33;;
14975;SDS011;7584;60.468;25.126;2023-01-15T07:50:29;5.53;;;3.97;;
14975;SDS011;7584;60.468;25.126;2023-01-15T07:52:55;7.23;;;3.37;;
14975;SDS011;7584;60.468;25.126;2023-01-15T07:55:20;6.13;;;3.10;;
14975;SDS011;7584;60.468;25.126;2023-01-15T07:57:46;7.50;;;3.10;;
14975;SDS011;7584;60.468;25.126;2023-01-15T08:00:12;4.80;;;2.87;;
14975;SDS011;7584;60.468;25.126;2023-01-15T08:02:38;4.07;;;2.50;;
14975;SDS011;7584;60.468;25.126;2023-01-15T08:05:04;4.63;;;2.90;;
14975;SDS011;7584;60.468;25.126;2023-01-15T08:07:29;6.63;;;3.53;;
14975;SDS011;7584;60.468;25.126;2023-01-15T08:09:55;5.47;;;3.27;;
14975;SDS011;7584;60.468;25.126;2023-01-15T08:12:20;4.77;;;2.53;;
14975;SDS011;7584;60.468;25.126;2023-01-15T08:15:04;4.27;;;3.00;;
14975;SDS011;7584;60.468;25.126;2023-01-15T08:17:41;3.63;;;2.87;;
14975;SDS011;7584;60.468;25.126;2023-01-15T08:20:08;4.03;;;2.87;;
14975;SDS011;7584;60.468;25.126;2023-01-15T08:22:34;5.17;;;2.40;;
14975;SDS011;7584;60.468;25.126;2023-01-15T08:25:00;8.40;;;2.90;;
14975;SDS011;7584;60.468;25.126;2023-01-15T08:27:25;10.73;;;2.73;;
14975;SDS011;7584;60.468;25.126;2023-01-15T08:29:51;3.60;;;2.33;;
14975;SDS011;7584;60.468;25.126;2023-01-15T08:32:16;7.40;;;2.73;;
14975;SDS011;7584;60.468;25.126;2023-01-15T08:34:41;4.67;;;2.40;;
14975;SDS011;7584;60.468;25.126;2023-01-15T08:37:07;3.27;;;2.67;;
14975;SDS011;7584;60.468;25.126;2023-01-15T08:39:32;3.70;;;2.60;;
14975;SDS011;7584;60.468;25.126;2023-01-15T08:41:58;3.23;;;2.20;;
14975;SDS011;7584;60.468;25.126;2023-01-15T08:44:23;3.33;;;2.13;;
14975;SDS011;7584;60.468;25.126;2023-01-15T08:46:51;2.97;;;2.20;;
14975;SDS011;7584;60.468;25.126;2023-01-15T08:49:17;3.13;;;1.93;;
14975;SDS011;7584;60.468;25.126;2023-01-15T08:51:43;3.13;;;2.30;;
14975;SDS011;7584;60.468;25.126;2023-01-15T08:54:08;4.03;;;2.40;;
14975;SDS011;7584;60.468;25.126;2023-01-15T08:56:33;2.43;;;1.80;;
14975;SDS011;7584;60.468;25.126;2023-01-15T08:58:58;2.10;;;1.77;;
14975;SDS011;7584;60.468;25.126;2023-01-15T09:01:27;3.33;;;2.17;;
14975;SDS011;7584;60.468;25.126;2023-01-15T09:03:52;2.60;;;2.00;;
14975;SDS011;7584;60.468;25.126;2023-01-15T09:06:18;4.50;;;2.00;;
14975;SDS011;7584;60.468;25.126;2023-01-15T09:08:43;3.40;;;2.10;;
14975;SDS011;7584;60.468;25.126;2023-01-15T09:11:08;4.40;;;2.33;;
14975;SDS011;7584;60.468;25.126;2023-01-15T09:13:36;3.60;;;2.03;;
14975;SDS011;7584;60.468;25.126;2023-01-15T09:16:02;5.63;;;1.93;;
14975;SDS011;7584;60.468;25.126;2023-01-15T09:18:28;3.40;;;2.00;;
14975;SDS011;7584;60.468;25.126;2023-01-15T09:20:54;2.50;;;2.13;;
14975;SDS011;7584;60.468;25.126;2023-01-15T09:23:19;3.20;;;2.03;;
14975;SDS011;7584;60.468;25.126;2023-01-15T09:26:00;3.03;;;2.00;;
14975;SDS011;7584;60.468;25.126;2023-01-15T09:28:26;3.43;;;2.07;;
14975;SDS011;7584;60.468;25.126;2023-01-15T09:30:52;2.80;;;1.80;;
14975;SDS011;7584;60.468;25.126;2023-01-15T09:33:17;2.63;;;1.80;;
14975;SDS011;7584;60.468;25.126;2023-01-15T09:35:42;2.33;;;1.67;;
14975;SDS011;7584;60.468;25.126;2023-01-15T09:38:11;3.67;;;2.10;;
14975;SDS011;7584;60.468;25.126;2023-01-15T09:43:07;1.63;;;1.13;;
14975;SDS011;7584;60.468;25.126;2023-01-15T09:45:38;2.50;;;1.73;;
14975;SDS011;7584;60.468;25.126;2023-01-15T09:48:13;2.80;;;1.60;;
14975;SDS011;7584;60.468;25.126;2023-01-15T09:50:54;3.57;;;2.23;;
14975;SDS011;7584;60.468;25.126;2023-01-15T09:55:53;2.03;;;1.63;;
14975;SDS011;7584;60.468;25.126;2023-01-15T09:58:20;1.87;;;1.50;;
14975;SDS011;7584;60.468;25.126;2023-01-15T10:00:47;1.97;;;1.53;;
14975;SDS011;7584;60.468;25.126;2023-01-15T10:03:20;2.73;;;1.50;;
14975;SDS011;7584;60.468;25.126;2023-01-15T10:08:32;2.33;;;1.30;;
14975;SDS011;7584;60.468;25.126;2023-01-15T10:11:01;2.63;;;1.20;;
14975;SDS011;7584;60.468;25.126;2023-01-15T10:13:36;3.33;;;1.73;;
14975;SDS011;7584;60.468;25.126;2023-01-15T10:16:01;3.27;;;1.63;;
14975;SDS011;7584;60.468;25.126;2023-01-15T10:18:27;2.00;;;1.50;;
14975;SDS011;7584;60.468;25.126;2023-01-15T10:26:12;4.33;;;1.60;;
14975;SDS011;7584;60.468;25.126;2023-01-15T10:28:51;1.20;;;1.10;;
14975;SDS011;7584;60.468;25.126;2023-01-15T10:31:22;2.53;;;1.17;;
14975;SDS011;7584;60.468;25.126;2023-01-15T10:39:16;1.53;;;1.20;;
14975;SDS011;7584;60.468;25.126;2023-01-15T10:44:19;1.33;;;1.07;;
14975;SDS011;7584;60.468;25.126;2023-01-15T10:46:50;1.90;;;0.90;;
14975;SDS011;7584;60.468;25.126;2023-01-15T10:49:17;2.37;;;1.50;;
14975;SDS011;7584;60.468;25.126;2023-01-15T11:04:54;2.50;;;1.30;;
14975;SDS011;7584;60.468;25.126;2023-01-15T11:07:21;3.47;;;1.40;;
14975;SDS011;7584;60.468;25.126;2023-01-15T11:09:47;2.30;;;1.20;;
14975;SDS011;7584;60.468;25.126;2023-01-15T11:12:18;2.00;;;1.20;;
14975;SDS011;7584;60.468;25.126;2023-01-15T11:14:44;3.93;;;1.20;;
14975;SDS011;7584;60.468;25.126;2023-01-15T11:17:34;3.47;;;1.30;;
14975;SDS011;7584;60.468;25.126;2023-01-15T11:22:49;1.50;;;0.90;;
14975;SDS011;7584;60.468;25.126;2023-01-15T11:25:24;1.30;;;1.00;;
14975;SDS011;7584;60.468;25.126;2023-01-15T11:27:49;1.77;;;1.07;;
14975;SDS011;7584;60.468;25.126;2023-01-15T11:30:28;2.63;;;1.20;;
14975;SDS011;7584;60.468;25.126;2023-01-15T11:32:55;1.73;;;1.20;;
14975;SDS011;7584;60.468;25.126;2023-01-15T11:35:21;2.17;;;1.30;;
14975;SDS011;7584;60.468;25.126;2023-01-15T11:37:47;1.60;;;1.10;;
14975;SDS011;7584;60.468;25.126;2023-01-15T11:40:16;1.93;;;1.17;;
14975;SDS011;7584;60.468;25.126;2023-01-15T11:42:45;1.30;;;0.93;;
14975;SDS011;7584;60.468;25.126;2023-01-15T11:45:29;2.17;;;0.97;;
14975;SDS011;7584;60.468;25.126;2023-01-15T11:48:15;1.90;;;1.10;;
14975;SDS011;7584;60.468;25.126;2023-01-15T11:51:09;0.80;;;0.77;;
14975;SDS011;7584;60.468;25.126;2023-01-15T11:53:39;2.20;;;1.00;;
14975;SDS011;7584;60.468;25.126;2023-01-15T11:56:08;1.10;;;0.80;;
14975;SDS011;7584;60.468;25.126;2023-01-15T12:01:12;2.40;;;0.90;;
14975;SDS011;7584;60.468;25.126;2023-01-15T12:03:39;1.10;;;0.83;;
14975;SDS011;7584;60.468;25.126;2023-01-15T12:06:11;1.10;;;0.83;;
14975;SDS011;7584;60.468;25.126;2023-01-15T12:14:04;1.43;;;0.70;;
14975;SDS011;7584;60.468;25.126;2023-01-15T12:16:54;3.13;;;0.90;;
14975;SDS011;7584;60.468;25.126;2023-01-15T12:24:42;1.83;;;1.10;;
14975;SDS011;7584;60.468;25.126;2023-01-15T12:29:47;2.60;;;1.00;;
14975;SDS011;7584;60.468;25.126;2023-01-15T12:32:17;2.07;;;0.73;;
14975;SDS011;7584;60.468;25.126;2023-01-15T12:37:23;2.17;;;0.80;;
14975;SDS011;7584;60.468;25.126;2023-01-15T12:39:54;1.90;;;1.10;;
14975;SDS011;7584;60.468;25.126;2023-01-15T12:42:23;2.00;;;0.90;;
14975;SDS011;7584;60.468;25.126;2023-01-15T12:45:08;1.17;;;0.90;;
14975;SDS011;7584;60.468;25.126;2023-01-15T12:52:40;1.07;;;0.67;;
14975;SDS011;7584;60.468;25.126;2023-01-15T12:55:18;1.90;;;1.00;;
14975;SDS011;7584;60.468;25.126;2023-01-15T12:57:45;3.63;;;1.20;;
14975;SDS011;7584;60.468;25.126;2023-01-15T13:05:15;2.37;;;1.30;;
14975;SDS011;7584;60.468;25.126;2023-01-15T13:07:42;2.70;;;1.50;;
14975;SDS011;7584;60.468;25.126;2023-01-15T13:10:16;3.93;;;1.37;;
14975;SDS011;7584;60.468;25.126;2023-01-15T13:12:43;1.57;;;1.10;;
14975;SDS011;7584;60.468;25.126;2023-01-15T13:15:11;2.53;;;1.23;;
14975;SDS011;7584;60.468;25.126;2023-01-15T13:20:14;1.23;;;0.93;;
14975;SDS011;7584;60.468;25.126;2023-01-15T13:30:32;1.40;;;1.07;;
14975;SDS011;7584;60.468;25.126;2023-01-15T13:36:17;2.80;;;1.27;;
14975;SDS011;7584;60.468;25.126;2023-01-15T13:38:47;3.27;;;1.50;;
14975;SDS011;7584;60.468;25.126;2023-01-15T13:41:21;3.80;;;1.00;;
14975;SDS011;7584;60.468;25.126;2023-01-15T13:44:20;4.90;;;1.50;;
14975;SDS011;7584;60.468;25.126;2023-01-15T13:46:47;3.67;;;1.77;;
14975;SDS011;7584;60.468;25.126;2023-01-15T13:49:15;2.50;;;1.77;;
14975;SDS011;7584;60.468;25.126;2023-01-15T13:51:45;3.07;;;1.90;;
14975;SDS011;7584;60.468;25.126;2023-01-15T13:54:12;2.40;;;1.40;;
14975;SDS011;7584;60.468;25.126;2023-01-15T13:56:40;2.77;;;1.87;;
14975;SDS011;7584;60.468;25.126;2023-01-15T13:59:23;4.50;;;1.60;;
14975;SDS011;7584;60.468;25.126;2023-01-15T14:01:50;4.20;;;1.57;;
14975;SDS011;7584;60.468;25.126;2023-01-15T14:04:16;3.40;;;1.70;;
14975;SDS011;7584;60.468;25.126;2023-01-15T14:09:10;2.83;;;0.97;;
14975;SDS011;7584;60.468;25.126;2023-01-15T14:11:37;3.60;;;2.10;;
14975;SDS011;7584;60.468;25.126;2023-01-15T14:16:56;1.43;;;1.27;;
14975;SDS011;7584;60.468;25.126;2023-01-15T14:24:41;1.43;;;1.20;;
14975;SDS011;7584;60.468;25.126;2023-01-15T14:34:59;2.60;;;1.70;;
14975;SDS011;7584;60.468;25.126;2023-01-15T14:37:25;2.43;;;1.47;;
14975;SDS011;7584;60.468;25.126;2023-01-15T14:39:54;4.17;;;2.10;;
14975;SDS011;7584;60.468;25.126;2023-01-15T14:42:28;2.70;;;1.57;;
14975;SDS011;7584;60.468;25.126;2023-01-15T14:47:51;3.13;;;1.40;;
14975;SDS011;7584;60.468;25.126;2023-01-15T14:52:52;7.50;;;2.00;;
14975;SDS011;7584;60.468;25.126;2023-01-15T14:55:18;2.10;;;1.47;;
14975;SDS011;7584;60.468;25.126;2023-01-15T14:57:47;3.00;;;1.83;;
14975;SDS011;7584;60.468;25.126;2023-01-15T15:00:15;3.40;;;1.63;;
14975;SDS011;7584;60.468;25.126;2023-01-15T15:02:41;2.53;;;1.50;;
14975;SDS011;7584;60.468;25.126;2023-01-15T15:05:15;2.20;;;1.80;;
14975;SDS011;7584;60.468;25.126;2023-01-15T15:07:42;4.10;;;2.00;;
14975;SDS011;7584;60.468;25.126;2023-01-15T15:23:08;3.93;;;1.60;;
14975;SDS011;7584;60.468;25.126;2023-01-15T15:25:37;4.67;;;2.07;;
14975;SDS011;7584;60.468;25.126;2023-01-15T15:28:04;4.27;;;2.73;;
14975;SDS011;7584;60.468;25.126;2023-01-15T15:30:30;2.30;;;1.67;;
14975;SDS011;7584;60.468;25.126;2023-01-15T15:32:56;2.20;;;1.00;;
14975;SDS011;7584;60.468;25.126;2023-01-15T15:35:25;3.50;;;2.50;;
14975;SDS011;7584;60.468;25.126;2023-01-15T15:37:51;2.10;;;1.30;;
14975;SDS011;7584;60.468;25.126;2023-01-15T15:40:17;3.00;;;1.63;;
14975;SDS011;7584;60.468;25.126;2023-01-15T15:42:48;3.67;;;1.63;;
14975;SDS011;7584;60.468;25.126;2023-01-15T15:45:33;2.00;;;1.50;;
14975;SDS011;7584;60.468;25.126;2023-01-15T15:48:27;4.07;;;1.40;;
14975;SDS011;7584;60.468;25.126;2023-01-15T15:51:33;3.13;;;2.20;;
14975;SDS011;7584;60.468;25.126;2023-01-15T15:54:09;2.23;;;1.73;;
14975;SDS011;7584;60.468;25.126;2023-01-15T15:56:34;4.77;;;1.67;;
14975;SDS011;7584;60.468;25.126;2023-01-15T15:59:00;2.93;;;1.40;;
14975;SDS011;7584;60.468;25.126;2023-01-15T16:01:29;2.60;;;1.33;;
14975;SDS011;7584;60.468;25.126;2023-01-15T16:03:54;1.93;;;1.57;;
14975;SDS011;7584;60.468;25.126;2023-01-15T16:06:21;2.40;;;1.73;;
14975;SDS011;7584;60.468;25.126;2023-01-15T16:08:53;5.33;;;1.70;;
14975;SDS011;7584;60.468;25.126;2023-01-15T16:11:18;3.00;;;1.70;;
14975;SDS011;7584;60.468;25.126;2023-01-15T16:13:46;2.00;;;1.60;;
14975;SDS011;7584;60.468;25.126;2023-01-15T16:16:13;4.93;;;2.77;;
14975;SDS011;7584;60.468;25.126;2023-01-15T16:18:44;2.73;;;1.40;;
14975;SDS011;7584;60.468;25.126;2023-01-15T16:21:14;5.73;;;3.73;;
14975;SDS011;7584;60.468;25.126;2023-01-15T16:23:40;4.40;;;1.30;;
14975;SDS011;7584;60.468;25.126;2023-01-15T16:28:40;0.83;;;0.80;;
14975;SDS011;7584;60.468;25.126;2023-01-15T16:31:08;5.17;;;2.00;;
14975;SDS011;7584;60.468;25.126;2023-01-15T16:33:34;4.13;;;1.70;;
14975;SDS011;7584;60.468;25.126;2023-01-15T16:36:00;5.83;;;1.70;;
14975;SDS011;7584;60.468;25.126;2023-01-15T16:38:30;3.17;;;2.60;;
14975;SDS011;7584;60.468;25.126;2023-01-15T16:40:56;4.13;;;1.83;;
14975;SDS011;7584;60.468;25.126;2023-01-15T16:43:22;1.90;;;1.70;;
14975;SDS011;7584;60.468;25.126;2023-01-15T16:50:47;5.27;;;4.77;;
14975;SDS011;7584;60.468;25.126;2023-01-15T16:53:46;11.00;;;9.83;;
14975;SDS011;7584;60.468;25.126;2023-01-15T16:56:05;3.23;;;1.43;;
14975;SDS011;7584;60.468;25.126;2023-01-15T16:58:37;2.70;;;1.40;;
14975;SDS011;7584;60.468;25.126;2023-01-15T17:02:05;1.90;;;1.33;;
14975;SDS011;7584;60.468;25.126;2023-01-15T17:03:58;3.07;;;1.70;;
14975;SDS011;7584;60.468;25.126;2023-01-15T17:06:24;4.27;;;1.33;;
14975;SDS011;7584;60.468;25.126;2023-01-15T17:08:50;2.57;;;1.33;;
14975;SDS011;7584;60.468;25.126;2023-01-15T17:11:17;2.80;;;1.57;;
14975;SDS011;7584;60.468;25.126;2023-01-15T17:13:43;2.80;;;1.50;;
14975;SDS011;7584;60.468;25.126;2023-01-15T17:18:37;2.03;;;1.57;;
14975;SDS011;7584;60.468;25.126;2023-01-15T17:21:02;2.53;;;1.83;;